sensor_id;sensor_type;location;lat;lon;timestamp;P1;durP1;ratioP1;P2;durP2;ratioP2
65230;SDS011;51813;40.666;16.602;2022-12-07T00:01:42;7.40;;;3.60;;
65230;SDS011;51813;40.666;16.602;2022-12-07T00:04:13;10.23;;;3.95;;
65230;SDS011;51813;40.666;16.602;2022-12-07T00:06:41;7.50;;;3.83;;
65230;SDS011;51813;40.666;16.602;2022-12-07T00:09:09;8.35;;;3.90;;
65230;SDS011;51813;40.666;16.602;2022-12-07T00:11:37;7.78;;;3.80;;
65230;SDS011;51813;40.666;16.602;2022-12-07T00:14:04;8.23;;;3.90;;
65230;SDS011;51813;40.666;16.602;2022-12-07T00:16:33;9.33;;;3.83;;
65230;SDS011;51813;40.666;16.602;2022-12-07T00:18:59;7.25;;;3.80;;
65230;SDS011;51813;40.666;16.602;2022-12-07T00:21:28;7.13;;;3.95;;
65230;SDS011;51813;40.666;16.602;2022-12-07T00:23:56;8.52;;;3.88;;
65230;SDS011;51813;40.666;16.602;2022-12-07T00:26:24;7.85;;;3.88;;
65230;SDS011;51813;40.666;16.602;2022-12-07T00:28:52;7.05;;;3.78;;
65230;SDS011;51813;40.666;16.602;2022-12-07T00:31:21;7.25;;;4.18;;
65230;SDS011;51813;40.666;16.602;2022-12-07T00:33:48;11.95;;;3.80;;
65230;SDS011;51813;40.666;16.602;2022-12-07T00:36:18;9.00;;;4.57;;
65230;SDS011;51813;40.666;16.602;2022-12-07T00:38:45;6.00;;;3.60;;
65230;SDS011;51813;40.666;16.602;2022-12-07T00:41:15;10.27;;;3.58;;
65230;SDS011;51813;40.666;16.602;2022-12-07T00:43:46;7.43;;;3.50;;
65230;SDS011;51813;40.666;16.602;2022-12-07T00:46:13;8.05;;;3.90;;
65230;SDS011;51813;40.666;16.602;2022-12-07T00:48:40;6.60;;;3.60;;
65230;SDS011;51813;40.666;16.602;2022-12-07T00:51:06;6.60;;;3.53;;
65230;SDS011;51813;40.666;16.602;2022-12-07T00:53:36;5.88;;;3.20;;
65230;SDS011;51813;40.666;16.602;2022-12-07T00:56:08;6.00;;;3.30;;
65230;SDS011;51813;40.666;16.602;2022-12-07T00:58:37;6.10;;;3.65;;
65230;SDS011;51813;40.666;16.602;2022-12-07T01:01:03;8.82;;;3.42;;
65230;SDS011;51813;40.666;16.602;2022-12-07T01:03:30;8.35;;;3.95;;
65230;SDS011;51813;40.666;16.602;2022-12-07T01:05:56;10.10;;;3.70;;
65230;SDS011;51813;40.666;16.602;2022-12-07T01:08:23;9.73;;;3.45;;
65230;SDS011;51813;40.666;16.602;2022-12-07T01:10:57;6.88;;;3.80;;
65230;SDS011;51813;40.666;16.602;2022-12-07T01:13:26;8.05;;;3.33;;
65230;SDS011;51813;40.666;16.602;2022-12-07T01:15:55;7.30;;;3.45;;
65230;SDS011;51813;40.666;16.602;2022-12-07T01:18:22;8.00;;;3.35;;
65230;SDS011;51813;40.666;16.602;2022-12-07T01:20:58;7.82;;;3.60;;
65230;SDS011;51813;40.666;16.602;2022-12-07T01:23:24;8.57;;;3.50;;
65230;SDS011;51813;40.666;16.602;2022-12-07T01:25:54;7.45;;;4.15;;
65230;SDS011;51813;40.666;16.602;2022-12-07T01:28:20;7.97;;;4.00;;
65230;SDS011;51813;40.666;16.602;2022-12-07T01:30:54;8.15;;;3.40;;
65230;SDS011;51813;40.666;16.602;2022-12-07T01:33:31;6.05;;;3.45;;
65230;SDS011;51813;40.666;16.602;2022-12-07T01:38:28;8.63;;;3.42;;
65230;SDS011;51813;40.666;16.602;2022-12-07T01:40:55;8.60;;;3.40;;
65230;SDS011;51813;40.666;16.602;2022-12-07T01:43:21;9.15;;;4.15;;
65230;SDS011;51813;40.666;16.602;2022-12-07T01:45:49;6.38;;;3.30;;
65230;SDS011;51813;40.666;16.602;2022-12-07T01:48:15;6.53;;;3.50;;
65230;SDS011;51813;40.666;16.602;2022-12-07T01:50:45;6.87;;;3.50;;
65230;SDS011;51813;40.666;16.602;2022-12-07T01:53:14;6.38;;;3.33;;
65230;SDS011;51813;40.666;16.602;2022-12-07T01:55:42;8.85;;;3.50;;
65230;SDS011;51813;40.666;16.602;2022-12-07T01:58:11;7.10;;;3.58;;
65230;SDS011;51813;40.666;16.602;2022-12-07T02:00:37;6.47;;;3.40;;
65230;SDS011;51813;40.666;16.602;2022-12-07T02:03:09;7.15;;;3.53;;
65230;SDS011;51813;40.666;16.602;2022-12-07T02:05:41;6.15;;;3.22;;
65230;SDS011;51813;40.666;16.602;2022-12-07T02:08:08;7.90;;;3.30;;
65230;SDS011;51813;40.666;16.602;2022-12-07T02:10:35;6.75;;;3.25;;
65230;SDS011;51813;40.666;16.602;2022-12-07T02:13:02;7.50;;;3.53;;
65230;SDS011;51813;40.666;16.602;2022-12-07T02:15:38;6.55;;;3.10;;
65230;SDS011;51813;40.666;16.602;2022-12-07T02:21:24;7.50;;;3.92;;
65230;SDS011;51813;40.666;16.602;2022-12-07T02:35:08;6.32;;;3.20;;
65230;SDS011;51813;40.666;16.602;2022-12-07T02:37:47;7.50;;;3.30;;
65230;SDS011;51813;40.666;16.602;2022-12-07T02:40:25;5.53;;;3.33;;
65230;SDS011;51813;40.666;16.602;2022-12-07T02:45:42;6.05;;;3.25;;
65230;SDS011;51813;40.666;16.602;2022-12-07T02:48:11;5.28;;;3.10;;
65230;SDS011;51813;40.666;16.602;2022-12-07T02:50:43;5.93;;;3.28;;
65230;SDS011;51813;40.666;16.602;2022-12-07T02:56:03;8.70;;;3.20;;
65230;SDS011;51813;40.666;16.602;2022-12-07T02:59:04;4.32;;;3.28;;
65230;SDS011;51813;40.666;16.602;2022-12-07T03:02:04;6.72;;;3.45;;
65230;SDS011;51813;40.666;16.602;2022-12-07T03:04:51;4.53;;;3.15;;
65230;SDS011;51813;40.666;16.602;2022-12-07T03:10:09;5.93;;;3.38;;
65230;SDS011;51813;40.666;16.602;2022-12-07T03:12:51;6.82;;;3.17;;
65230;SDS011;51813;40.666;16.602;2022-12-07T03:15:46;6.53;;;3.38;;
65230;SDS011;51813;40.666;16.602;2022-12-07T03:18:34;5.65;;;3.38;;
65230;SDS011;51813;40.666;16.602;2022-12-07T03:21:11;6.43;;;3.05;;
65230;SDS011;51813;40.666;16.602;2022-12-07T03:23:41;5.93;;;3.40;;
65230;SDS011;51813;40.666;16.602;2022-12-07T03:26:10;6.88;;;3.25;;
65230;SDS011;51813;40.666;16.602;2022-12-07T03:28:41;5.93;;;2.92;;
65230;SDS011;51813;40.666;16.602;2022-12-07T03:31:23;8.75;;;3.80;;
65230;SDS011;51813;40.666;16.602;2022-12-07T03:36:47;6.68;;;3.20;;
65230;SDS011;51813;40.666;16.602;2022-12-07T03:39:45;7.40;;;3.20;;
65230;SDS011;51813;40.666;16.602;2022-12-07T03:42:19;5.22;;;2.90;;
65230;SDS011;51813;40.666;16.602;2022-12-07T03:44:45;7.18;;;3.40;;
65230;SDS011;51813;40.666;16.602;2022-12-07T03:49:49;6.88;;;3.33;;
65230;SDS011;51813;40.666;16.602;2022-12-07T03:52:44;6.43;;;3.45;;
65230;SDS011;51813;40.666;16.602;2022-12-07T03:57:44;6.65;;;3.78;;
65230;SDS011;51813;40.666;16.602;2022-12-07T04:00:14;6.03;;;3.40;;
65230;SDS011;51813;40.666;16.602;2022-12-07T04:02:40;5.68;;;3.40;;
65230;SDS011;51813;40.666;16.602;2022-12-07T04:05:06;5.45;;;3.15;;
65230;SDS011;51813;40.666;16.602;2022-12-07T04:07:33;8.52;;;3.38;;
65230;SDS011;51813;40.666;16.602;2022-12-07T04:09:58;6.53;;;3.50;;
65230;SDS011;51813;40.666;16.602;2022-12-07T04:12:24;6.60;;;3.83;;
65230;SDS011;51813;40.666;16.602;2022-12-07T04:14:50;6.28;;;3.88;;
65230;SDS011;51813;40.666;16.602;2022-12-07T04:17:15;6.22;;;3.33;;
65230;SDS011;51813;40.666;16.602;2022-12-07T04:19:41;7.65;;;3.58;;
65230;SDS011;51813;40.666;16.602;2022-12-07T04:22:07;6.72;;;3.70;;
65230;SDS011;51813;40.666;16.602;2022-12-07T04:24:33;6.75;;;3.83;;
65230;SDS011;51813;40.666;16.602;2022-12-07T04:26:59;6.85;;;3.78;;
65230;SDS011;51813;40.666;16.602;2022-12-07T04:29:25;7.40;;;3.70;;
65230;SDS011;51813;40.666;16.602;2022-12-07T04:31:51;8.77;;;4.18;;
65230;SDS011;51813;40.666;16.602;2022-12-07T04:34:17;7.70;;;3.70;;
65230;SDS011;51813;40.666;16.602;2022-12-07T04:36:43;8.35;;;4.22;;
65230;SDS011;51813;40.666;16.602;2022-12-07T04:39:23;7.10;;;3.85;;
65230;SDS011;51813;40.666;16.602;2022-12-07T04:41:56;5.45;;;3.22;;
65230;SDS011;51813;40.666;16.602;2022-12-07T04:44:22;6.45;;;3.70;;
65230;SDS011;51813;40.666;16.602;2022-12-07T04:46:50;6.30;;;3.58;;
65230;SDS011;51813;40.666;16.602;2022-12-07T04:49:16;6.28;;;3.72;;
65230;SDS011;51813;40.666;16.602;2022-12-07T04:51:42;7.50;;;3.85;;
65230;SDS011;51813;40.666;16.602;2022-12-07T04:54:08;6.18;;;3.30;;
65230;SDS011;51813;40.666;16.602;2022-12-07T04:56:34;6.03;;;3.58;;
65230;SDS011;51813;40.666;16.602;2022-12-07T04:59:00;8.02;;;3.78;;
65230;SDS011;51813;40.666;16.602;2022-12-07T05:01:26;5.88;;;3.80;;
65230;SDS011;51813;40.666;16.602;2022-12-07T05:03:52;6.95;;;3.80;;
65230;SDS011;51813;40.666;16.602;2022-12-07T05:06:18;5.63;;;3.30;;
65230;SDS011;51813;40.666;16.602;2022-12-07T05:08:44;6.72;;;3.78;;
65230;SDS011;51813;40.666;16.602;2022-12-07T05:11:10;6.97;;;4.28;;
65230;SDS011;51813;40.666;16.602;2022-12-07T05:14:00;5.90;;;3.35;;
65230;SDS011;51813;40.666;16.602;2022-12-07T05:16:26;7.82;;;3.40;;
65230;SDS011;51813;40.666;16.602;2022-12-07T05:18:52;4.85;;;3.28;;
65230;SDS011;51813;40.666;16.602;2022-12-07T05:21:18;6.45;;;3.83;;
65230;SDS011;51813;40.666;16.602;2022-12-07T05:23:43;5.13;;;3.30;;
65230;SDS011;51813;40.666;16.602;2022-12-07T05:26:09;6.70;;;3.33;;
65230;SDS011;51813;40.666;16.602;2022-12-07T05:28:35;5.55;;;3.35;;
65230;SDS011;51813;40.666;16.602;2022-12-07T05:31:00;5.55;;;3.40;;
65230;SDS011;51813;40.666;16.602;2022-12-07T05:33:26;5.88;;;3.45;;
65230;SDS011;51813;40.666;16.602;2022-12-07T05:35:52;6.50;;;3.42;;
65230;SDS011;51813;40.666;16.602;2022-12-07T05:38:17;6.30;;;3.15;;
65230;SDS011;51813;40.666;16.602;2022-12-07T05:40:43;5.85;;;3.58;;
65230;SDS011;51813;40.666;16.602;2022-12-07T05:43:09;6.85;;;4.22;;
65230;SDS011;51813;40.666;16.602;2022-12-07T05:45:35;8.15;;;4.03;;
65230;SDS011;51813;40.666;16.602;2022-12-07T05:48:01;6.47;;;3.80;;
65230;SDS011;51813;40.666;16.602;2022-12-07T05:50:26;7.95;;;3.70;;
65230;SDS011;51813;40.666;16.602;2022-12-07T05:52:53;6.38;;;3.72;;
65230;SDS011;51813;40.666;16.602;2022-12-07T05:55:18;8.13;;;3.90;;
65230;SDS011;51813;40.666;16.602;2022-12-07T05:57:44;6.53;;;4.40;;
65230;SDS011;51813;40.666;16.602;2022-12-07T06:00:30;6.75;;;3.95;;
65230;SDS011;51813;40.666;16.602;2022-12-07T06:02:56;7.90;;;4.05;;
65230;SDS011;51813;40.666;16.602;2022-12-07T06:05:22;7.05;;;4.22;;
65230;SDS011;51813;40.666;16.602;2022-12-07T06:07:48;8.23;;;4.43;;
65230;SDS011;51813;40.666;16.602;2022-12-07T06:10:14;6.38;;;4.60;;
65230;SDS011;51813;40.666;16.602;2022-12-07T06:12:40;6.05;;;4.13;;
65230;SDS011;51813;40.666;16.602;2022-12-07T06:15:08;7.75;;;4.60;;
65230;SDS011;51813;40.666;16.602;2022-12-07T06:17:34;9.15;;;4.18;;
65230;SDS011;51813;40.666;16.602;2022-12-07T06:20:01;8.25;;;4.40;;
65230;SDS011;51813;40.666;16.602;2022-12-07T06:22:27;7.80;;;4.65;;
65230;SDS011;51813;40.666;16.602;2022-12-07T06:24:52;7.28;;;4.00;;
65230;SDS011;51813;40.666;16.602;2022-12-07T06:27:18;7.90;;;4.28;;
65230;SDS011;51813;40.666;16.602;2022-12-07T06:29:44;7.75;;;4.07;;
65230;SDS011;51813;40.666;16.602;2022-12-07T06:32:09;9.02;;;4.40;;
65230;SDS011;51813;40.666;16.602;2022-12-07T06:34:36;7.63;;;4.68;;
65230;SDS011;51813;40.666;16.602;2022-12-07T06:37:01;7.97;;;4.25;;
65230;SDS011;51813;40.666;16.602;2022-12-07T06:39:28;10.27;;;4.70;;
65230;SDS011;51813;40.666;16.602;2022-12-07T06:41:54;6.97;;;4.40;;
65230;SDS011;51813;40.666;16.602;2022-12-07T06:44:21;8.07;;;4.50;;
65230;SDS011;51813;40.666;16.602;2022-12-07T06:46:47;8.20;;;4.25;;
65230;SDS011;51813;40.666;16.602;2022-12-07T06:49:14;10.27;;;4.55;;
65230;SDS011;51813;40.666;16.602;2022-12-07T06:51:39;7.05;;;3.90;;
65230;SDS011;51813;40.666;16.602;2022-12-07T06:54:08;9.63;;;4.45;;
65230;SDS011;51813;40.666;16.602;2022-12-07T06:56:38;9.57;;;4.50;;
65230;SDS011;51813;40.666;16.602;2022-12-07T06:59:04;9.02;;;4.28;;
65230;SDS011;51813;40.666;16.602;2022-12-07T07:01:31;6.38;;;4.15;;
65230;SDS011;51813;40.666;16.602;2022-12-07T07:03:57;6.78;;;4.45;;
65230;SDS011;51813;40.666;16.602;2022-12-07T07:06:23;8.30;;;4.10;;
65230;SDS011;51813;40.666;16.602;2022-12-07T07:08:49;7.38;;;4.20;;
65230;SDS011;51813;40.666;16.602;2022-12-07T07:11:15;7.22;;;4.15;;
65230;SDS011;51813;40.666;16.602;2022-12-07T07:13:41;8.27;;;4.45;;
65230;SDS011;51813;40.666;16.602;2022-12-07T07:16:07;8.50;;;4.60;;
65230;SDS011;51813;40.666;16.602;2022-12-07T07:18:33;8.98;;;4.45;;
65230;SDS011;51813;40.666;16.602;2022-12-07T07:20:59;7.65;;;4.50;;
65230;SDS011;51813;40.666;16.602;2022-12-07T07:23:25;9.40;;;4.20;;
65230;SDS011;51813;40.666;16.602;2022-12-07T07:25:51;7.10;;;4.53;;
65230;SDS011;51813;40.666;16.602;2022-12-07T07:28:17;6.43;;;4.40;;
65230;SDS011;51813;40.666;16.602;2022-12-07T07:30:43;7.28;;;4.20;;
65230;SDS011;51813;40.666;16.602;2022-12-07T07:33:09;7.07;;;4.90;;
65230;SDS011;51813;40.666;16.602;2022-12-07T07:35:36;8.48;;;4.80;;
65230;SDS011;51813;40.666;16.602;2022-12-07T07:38:02;9.00;;;4.80;;
65230;SDS011;51813;40.666;16.602;2022-12-07T07:40:28;7.55;;;4.63;;
65230;SDS011;51813;40.666;16.602;2022-12-07T07:42:54;7.53;;;4.60;;
65230;SDS011;51813;40.666;16.602;2022-12-07T07:45:21;9.10;;;5.00;;
65230;SDS011;51813;40.666;16.602;2022-12-07T07:47:48;6.43;;;4.53;;
65230;SDS011;51813;40.666;16.602;2022-12-07T07:50:13;8.90;;;4.82;;
65230;SDS011;51813;40.666;16.602;2022-12-07T07:52:41;8.82;;;5.07;;
65230;SDS011;51813;40.666;16.602;2022-12-07T07:55:07;9.43;;;5.15;;
65230;SDS011;51813;40.666;16.602;2022-12-07T07:57:36;10.10;;;5.22;;
65230;SDS011;51813;40.666;16.602;2022-12-07T08:00:03;9.32;;;5.18;;
65230;SDS011;51813;40.666;16.602;2022-12-07T08:02:30;7.15;;;4.53;;
65230;SDS011;51813;40.666;16.602;2022-12-07T08:04:56;6.28;;;4.47;;
65230;SDS011;51813;40.666;16.602;2022-12-07T08:07:22;7.65;;;4.63;;
65230;SDS011;51813;40.666;16.602;2022-12-07T08:09:47;8.25;;;5.10;;
65230;SDS011;51813;40.666;16.602;2022-12-07T08:12:13;7.75;;;4.78;;
65230;SDS011;51813;40.666;16.602;2022-12-07T08:14:39;7.90;;;4.80;;
65230;SDS011;51813;40.666;16.602;2022-12-07T08:17:04;7.15;;;4.32;;
65230;SDS011;51813;40.666;16.602;2022-12-07T08:19:30;6.88;;;4.20;;
65230;SDS011;51813;40.666;16.602;2022-12-07T08:21:56;7.50;;;4.50;;
65230;SDS011;51813;40.666;16.602;2022-12-07T08:24:22;11.23;;;5.28;;
65230;SDS011;51813;40.666;16.602;2022-12-07T08:26:48;8.05;;;5.07;;
65230;SDS011;51813;40.666;16.602;2022-12-07T08:29:15;6.93;;;4.53;;
65230;SDS011;51813;40.666;16.602;2022-12-07T08:31:41;6.95;;;4.43;;
65230;SDS011;51813;40.666;16.602;2022-12-07T08:34:07;8.57;;;4.47;;
65230;SDS011;51813;40.666;16.602;2022-12-07T08:36:35;7.18;;;4.68;;
65230;SDS011;51813;40.666;16.602;2022-12-07T08:39:01;7.70;;;4.85;;
65230;SDS011;51813;40.666;16.602;2022-12-07T08:41:27;8.45;;;4.78;;
65230;SDS011;51813;40.666;16.602;2022-12-07T08:43:53;8.48;;;4.75;;
65230;SDS011;51813;40.666;16.602;2022-12-07T08:46:26;7.32;;;4.95;;
65230;SDS011;51813;40.666;16.602;2022-12-07T08:49:02;7.03;;;4.70;;
65230;SDS011;51813;40.666;16.602;2022-12-07T08:51:39;9.68;;;4.68;;
65230;SDS011;51813;40.666;16.602;2022-12-07T08:54:06;8.88;;;5.10;;
65230;SDS011;51813;40.666;16.602;2022-12-07T08:56:35;5.90;;;4.32;;
65230;SDS011;51813;40.666;16.602;2022-12-07T08:59:01;6.60;;;4.53;;
65230;SDS011;51813;40.666;16.602;2022-12-07T09:01:28;8.85;;;4.75;;
65230;SDS011;51813;40.666;16.602;2022-12-07T09:03:54;8.25;;;4.88;;
65230;SDS011;51813;40.666;16.602;2022-12-07T09:06:20;8.68;;;4.65;;
65230;SDS011;51813;40.666;16.602;2022-12-07T09:08:46;7.43;;;4.38;;
65230;SDS011;51813;40.666;16.602;2022-12-07T09:11:15;6.78;;;4.55;;
65230;SDS011;51813;40.666;16.602;2022-12-07T09:13:40;8.65;;;4.80;;
65230;SDS011;51813;40.666;16.602;2022-12-07T09:16:06;8.07;;;4.35;;
65230;SDS011;51813;40.666;16.602;2022-12-07T09:18:32;8.50;;;4.63;;
65230;SDS011;51813;40.666;16.602;2022-12-07T09:20:58;7.32;;;4.57;;
65230;SDS011;51813;40.666;16.602;2022-12-07T09:23:24;7.82;;;4.50;;
65230;SDS011;51813;40.666;16.602;2022-12-07T09:25:50;6.55;;;4.35;;
65230;SDS011;51813;40.666;16.602;2022-12-07T09:28:16;6.82;;;4.32;;
65230;SDS011;51813;40.666;16.602;2022-12-07T09:30:45;9.00;;;4.70;;
65230;SDS011;51813;40.666;16.602;2022-12-07T09:33:12;9.55;;;4.82;;
65230;SDS011;51813;40.666;16.602;2022-12-07T09:35:38;8.57;;;4.53;;
65230;SDS011;51813;40.666;16.602;2022-12-07T09:38:08;7.10;;;4.50;;
65230;SDS011;51813;40.666;16.602;2022-12-07T09:40:34;7.38;;;4.28;;
65230;SDS011;51813;40.666;16.602;2022-12-07T09:43:00;7.68;;;4.43;;
65230;SDS011;51813;40.666;16.602;2022-12-07T09:45:27;7.45;;;4.97;;
65230;SDS011;51813;40.666;16.602;2022-12-07T09:48:00;8.90;;;5.18;;
65230;SDS011;51813;40.666;16.602;2022-12-07T09:50:28;8.18;;;4.55;;
65230;SDS011;51813;40.666;16.602;2022-12-07T09:52:54;6.47;;;4.20;;
65230;SDS011;51813;40.666;16.602;2022-12-07T09:55:30;7.95;;;4.72;;
65230;SDS011;51813;40.666;16.602;2022-12-07T09:57:56;7.43;;;4.72;;
65230;SDS011;51813;40.666;16.602;2022-12-07T10:00:23;6.72;;;4.72;;
65230;SDS011;51813;40.666;16.602;2022-12-07T10:02:57;8.07;;;4.88;;
65230;SDS011;51813;40.666;16.602;2022-12-07T10:05:26;9.90;;;5.43;;
65230;SDS011;51813;40.666;16.602;2022-12-07T10:08:04;6.60;;;4.25;;
65230;SDS011;51813;40.666;16.602;2022-12-07T10:10:31;8.35;;;5.68;;
65230;SDS011;51813;40.666;16.602;2022-12-07T10:21:03;7.45;;;4.82;;
65230;SDS011;51813;40.666;16.602;2022-12-07T10:23:35;8.82;;;4.68;;
65230;SDS011;51813;40.666;16.602;2022-12-07T10:26:25;7.68;;;4.63;;
65230;SDS011;51813;40.666;16.602;2022-12-07T10:29:01;6.22;;;4.13;;
65230;SDS011;51813;40.666;16.602;2022-12-07T10:31:57;6.85;;;4.28;;
65230;SDS011;51813;40.666;16.602;2022-12-07T10:34:26;8.43;;;4.40;;
65230;SDS011;51813;40.666;16.602;2022-12-07T10:37:18;7.10;;;5.30;;
65230;SDS011;51813;40.666;16.602;2022-12-07T10:42:23;7.43;;;4.47;;
65230;SDS011;51813;40.666;16.602;2022-12-07T10:47:52;8.20;;;4.78;;
65230;SDS011;51813;40.666;16.602;2022-12-07T11:00:54;8.20;;;4.70;;
65230;SDS011;51813;40.666;16.602;2022-12-07T11:06:33;7.20;;;4.78;;
65230;SDS011;51813;40.666;16.602;2022-12-07T11:12:10;6.65;;;4.90;;
65230;SDS011;51813;40.666;16.602;2022-12-07T11:25:54;8.90;;;5.65;;
65230;SDS011;51813;40.666;16.602;2022-12-07T11:31:34;10.27;;;5.50;;
65230;SDS011;51813;40.666;16.602;2022-12-07T11:37:12;9.27;;;5.13;;
65230;SDS011;51813;40.666;16.602;2022-12-07T11:39:44;7.55;;;5.03;;
65230;SDS011;51813;40.666;16.602;2022-12-07T11:42:16;8.57;;;5.50;;
65230;SDS011;51813;40.666;16.602;2022-12-07T11:44:53;9.05;;;5.25;;
65230;SDS011;51813;40.666;16.602;2022-12-07T11:50:13;7.63;;;5.18;;
65230;SDS011;51813;40.666;16.602;2022-12-07T12:03:46;7.78;;;4.97;;
65230;SDS011;51813;40.666;16.602;2022-12-07T12:06:14;8.98;;;5.20;;
65230;SDS011;51813;40.666;16.602;2022-12-07T12:09:27;10.63;;;5.47;;
65230;SDS011;51813;40.666;16.602;2022-12-07T12:22:45;7.95;;;5.40;;
65230;SDS011;51813;40.666;16.602;2022-12-07T12:25:30;8.82;;;5.18;;
65230;SDS011;51813;40.666;16.602;2022-12-07T12:28:03;7.87;;;5.17;;
65230;SDS011;51813;40.666;16.602;2022-12-07T12:33:11;6.97;;;4.90;;
65230;SDS011;51813;40.666;16.602;2022-12-07T12:59:31;5.47;;;3.90;;
65230;SDS011;51813;40.666;16.602;2022-12-07T13:10:24;6.75;;;3.85;;
65230;SDS011;51813;40.666;16.602;2022-12-07T13:15:41;5.13;;;3.65;;
65230;SDS011;51813;40.666;16.602;2022-12-07T13:20:57;5.43;;;3.45;;
65230;SDS011;51813;40.666;16.602;2022-12-07T13:26:35;7.97;;;3.95;;
65230;SDS011;51813;40.666;16.602;2022-12-07T13:28:45;6.40;;;3.53;;
65230;SDS011;51813;40.666;16.602;2022-12-07T13:36:58;4.85;;;3.47;;
65230;SDS011;51813;40.666;16.602;2022-12-07T13:39:35;5.50;;;3.30;;
65230;SDS011;51813;40.666;16.602;2022-12-07T13:44:56;6.30;;;3.65;;
65230;SDS011;51813;40.666;16.602;2022-12-07T13:52:49;5.70;;;3.30;;
65230;SDS011;51813;40.666;16.602;2022-12-07T13:55:15;5.22;;;3.55;;
65230;SDS011;51813;40.666;16.602;2022-12-07T13:57:42;6.30;;;3.50;;
65230;SDS011;51813;40.666;16.602;2022-12-07T14:00:15;4.85;;;3.33;;
65230;SDS011;51813;40.666;16.602;2022-12-07T14:03:04;5.20;;;3.40;;
65230;SDS011;51813;40.666;16.602;2022-12-07T14:06:02;5.45;;;3.33;;
65230;SDS011;51813;40.666;16.602;2022-12-07T14:08:50;5.55;;;3.17;;
65230;SDS011;51813;40.666;16.602;2022-12-07T14:11:30;6.00;;;3.45;;
65230;SDS011;51813;40.666;16.602;2022-12-07T14:13:58;5.25;;;3.55;;
65230;SDS011;51813;40.666;16.602;2022-12-07T14:16:30;6.53;;;3.58;;
65230;SDS011;51813;40.666;16.602;2022-12-07T14:19:01;6.57;;;3.75;;
65230;SDS011;51813;40.666;16.602;2022-12-07T14:21:29;7.22;;;3.80;;
65230;SDS011;51813;40.666;16.602;2022-12-07T14:26:37;6.03;;;3.60;;
65230;SDS011;51813;40.666;16.602;2022-12-07T14:31:54;5.32;;;3.67;;
65230;SDS011;51813;40.666;16.602;2022-12-07T14:34:22;6.00;;;3.60;;
65230;SDS011;51813;40.666;16.602;2022-12-07T14:36:48;6.10;;;3.70;;
65230;SDS011;51813;40.666;16.602;2022-12-07T14:39:14;7.53;;;3.47;;
65230;SDS011;51813;40.666;16.602;2022-12-07T14:41:40;5.65;;;3.67;;
65230;SDS011;51813;40.666;16.602;2022-12-07T14:44:15;5.97;;;3.45;;
65230;SDS011;51813;40.666;16.602;2022-12-07T14:46:41;4.85;;;3.55;;
65230;SDS011;51813;40.666;16.602;2022-12-07T14:49:07;5.88;;;3.60;;
65230;SDS011;51813;40.666;16.602;2022-12-07T14:51:33;5.72;;;3.35;;
65230;SDS011;51813;40.666;16.602;2022-12-07T14:54:03;5.35;;;3.63;;
65230;SDS011;51813;40.666;16.602;2022-12-07T14:56:31;5.13;;;3.17;;
65230;SDS011;51813;40.666;16.602;2022-12-07T14:58:57;6.30;;;3.60;;
65230;SDS011;51813;40.666;16.602;2022-12-07T15:01:22;5.22;;;3.28;;
65230;SDS011;51813;40.666;16.602;2022-12-07T15:03:48;5.07;;;3.55;;
65230;SDS011;51813;40.666;16.602;2022-12-07T15:06:15;6.65;;;3.70;;
65230;SDS011;51813;40.666;16.602;2022-12-07T15:08:41;5.40;;;3.28;;
65230;SDS011;51813;40.666;16.602;2022-12-07T15:11:13;5.15;;;3.58;;
65230;SDS011;51813;40.666;16.602;2022-12-07T15:13:39;7.15;;;3.53;;
65230;SDS011;51813;40.666;16.602;2022-12-07T15:16:23;5.90;;;3.47;;
65230;SDS011;51813;40.666;16.602;2022-12-07T15:18:49;7.97;;;3.70;;
65230;SDS011;51813;40.666;16.602;2022-12-07T15:21:16;7.15;;;3.78;;
65230;SDS011;51813;40.666;16.602;2022-12-07T15:23:42;6.32;;;3.45;;
65230;SDS011;51813;40.666;16.602;2022-12-07T15:26:10;6.05;;;3.70;;
65230;SDS011;51813;40.666;16.602;2022-12-07T15:28:36;6.07;;;3.97;;
65230;SDS011;51813;40.666;16.602;2022-12-07T15:31:01;5.90;;;3.58;;
65230;SDS011;51813;40.666;16.602;2022-12-07T15:33:27;5.20;;;3.30;;
65230;SDS011;51813;40.666;16.602;2022-12-07T15:35:53;5.63;;;3.45;;
65230;SDS011;51813;40.666;16.602;2022-12-07T15:38:18;5.47;;;3.78;;
65230;SDS011;51813;40.666;16.602;2022-12-07T15:40:47;6.82;;;3.50;;
65230;SDS011;51813;40.666;16.602;2022-12-07T15:43:13;5.75;;;3.40;;
65230;SDS011;51813;40.666;16.602;2022-12-07T15:45:58;5.50;;;3.67;;
65230;SDS011;51813;40.666;16.602;2022-12-07T15:48:24;5.45;;;3.63;;
65230;SDS011;51813;40.666;16.602;2022-12-07T15:50:50;7.03;;;3.67;;
65230;SDS011;51813;40.666;16.602;2022-12-07T15:53:16;6.65;;;3.95;;
65230;SDS011;51813;40.666;16.602;2022-12-07T15:55:42;7.80;;;3.95;;
65230;SDS011;51813;40.666;16.602;2022-12-07T15:58:07;6.65;;;3.90;;
65230;SDS011;51813;40.666;16.602;2022-12-07T16:00:33;7.50;;;3.90;;
65230;SDS011;51813;40.666;16.602;2022-12-07T16:02:59;6.57;;;4.00;;
65230;SDS011;51813;40.666;16.602;2022-12-07T16:05:25;7.07;;;4.20;;
65230;SDS011;51813;40.666;16.602;2022-12-07T16:07:50;6.93;;;4.45;;
65230;SDS011;51813;40.666;16.602;2022-12-07T16:10:16;6.57;;;3.95;;
65230;SDS011;51813;40.666;16.602;2022-12-07T16:12:42;7.35;;;4.05;;
65230;SDS011;51813;40.666;16.602;2022-12-07T16:15:08;8.63;;;4.72;;
65230;SDS011;51813;40.666;16.602;2022-12-07T16:17:34;6.50;;;4.10;;
65230;SDS011;51813;40.666;16.602;2022-12-07T16:19:59;8.30;;;5.00;;
65230;SDS011;51813;40.666;16.602;2022-12-07T16:22:25;8.75;;;4.68;;
65230;SDS011;51813;40.666;16.602;2022-12-07T16:24:51;8.10;;;4.50;;
65230;SDS011;51813;40.666;16.602;2022-12-07T16:27:16;7.53;;;4.70;;
65230;SDS011;51813;40.666;16.602;2022-12-07T16:29:42;8.15;;;4.28;;
65230;SDS011;51813;40.666;16.602;2022-12-07T16:32:08;5.78;;;4.32;;
65230;SDS011;51813;40.666;16.602;2022-12-07T16:34:33;8.00;;;4.07;;
65230;SDS011;51813;40.666;16.602;2022-12-07T16:36:59;7.35;;;4.22;;
65230;SDS011;51813;40.666;16.602;2022-12-07T16:39:25;7.07;;;4.53;;
65230;SDS011;51813;40.666;16.602;2022-12-07T16:41:50;6.70;;;4.50;;
65230;SDS011;51813;40.666;16.602;2022-12-07T16:44:17;6.18;;;4.32;;
65230;SDS011;51813;40.666;16.602;2022-12-07T16:46:43;5.97;;;4.00;;
65230;SDS011;51813;40.666;16.602;2022-12-07T16:49:12;6.70;;;4.65;;
65230;SDS011;51813;40.666;16.602;2022-12-07T16:51:39;6.88;;;4.70;;
65230;SDS011;51813;40.666;16.602;2022-12-07T16:54:06;6.38;;;4.53;;
65230;SDS011;51813;40.666;16.602;2022-12-07T16:56:31;7.10;;;4.40;;
65230;SDS011;51813;40.666;16.602;2022-12-07T16:58:58;8.15;;;4.72;;
65230;SDS011;51813;40.666;16.602;2022-12-07T17:01:23;6.90;;;4.35;;
65230;SDS011;51813;40.666;16.602;2022-12-07T17:03:51;7.28;;;4.57;;
65230;SDS011;51813;40.666;16.602;2022-12-07T17:08:44;5.68;;;4.40;;
65230;SDS011;51813;40.666;16.602;2022-12-07T17:11:12;7.78;;;4.95;;
65230;SDS011;51813;40.666;16.602;2022-12-07T17:13:49;8.10;;;5.10;;
65230;SDS011;51813;40.666;16.602;2022-12-07T17:16:34;7.07;;;4.88;;
65230;SDS011;51813;40.666;16.602;2022-12-07T17:19:03;8.63;;;5.00;;
65230;SDS011;51813;40.666;16.602;2022-12-07T17:21:33;7.18;;;4.82;;
65230;SDS011;51813;40.666;16.602;2022-12-07T17:23:59;8.32;;;5.07;;
65230;SDS011;51813;40.666;16.602;2022-12-07T17:26:26;10.45;;;5.32;;
65230;SDS011;51813;40.666;16.602;2022-12-07T17:28:52;7.63;;;4.93;;
65230;SDS011;51813;40.666;16.602;2022-12-07T17:31:19;9.75;;;5.70;;
65230;SDS011;51813;40.666;16.602;2022-12-07T17:33:46;7.57;;;5.32;;
65230;SDS011;51813;40.666;16.602;2022-12-07T17:36:14;7.63;;;4.85;;